AKST,Max TemperatureF,Mean TemperatureF,Min TemperatureF,Max Dew PointF,MeanDew PointF,Min DewpointF,Max Humidity, Mean Humidity, Min Humidity, Max Sea Level PressureIn, Mean Sea Level PressureIn, Min Sea Level PressureIn, Max VisibilityMiles, Mean VisibilityMiles, Min VisibilityMiles, Max Wind SpeedMPH, Mean Wind SpeedMPH, Max Gust SpeedMPH,PrecipitationIn, CloudCover, Events, WindDirDegrees
2014-1-1,19,0,-20,13,7,-7,88,65,27,29.75,29.56,29.45,10,7,1,18,9,28,0.01,6,Fog-Snow,51
2014-1-2,12,6,1,9,4,-3,88,85,76,30.14,29.94,29.69,10,10,5,5,0,,0.00,7,Snow,75
2014-1-3,10,6,1,7,5,-2,92,85,75,30.43,30.28,30.16,10,5,1,4,0,,0.04,7,Snow,310
2014-1-4,23,6,1,3,1,-4,88,79,42,30.46,30.33,30.01,10,10,10,10,4,29,0.00,3,,354
2014-1-5,24,12,1,11,5,-2,92,56,24,29.98,29.84,29.77,10,8,1,14,9,26,0.02,8,Fog-Snow,73
2014-1-6,19,16,12,14,11,9,93,85,68,29.86,29.79,29.72,10,4,1,7,1,,0.08,8,Snow,29
2014-1-7,15,4,-7,12,-2,-9,92,83,69,29.78,29.70,29.62,10,10,2,7,2,,0.00,3,Snow,356
2014-1-8,12,6,-2,7,4,-7,92,80,58,29.62,29.56,29.51,10,6,1,8,5,,0.04,8,Snow,341
2014-1-9,3,-7,-17,-9,-15,-23,83,74,61,29.73,29.63,29.57,10,10,10,8,3,,0.00,2,,338
2014-1-10,-13,-23,-34,-22,-28,-35,81,74,59,29.77,29.75,29.71,10,10,10,6,2,,0.00,2,,2
2014-1-11,-31,-37,-43,,,,,,,29.71,29.57,29.39,10,10,10,4,2,,0.00,1,Fog,11
2014-1-12,-29,-37,-45,,,,,,,29.58,29.46,29.36,10,9,4,6,2,,0.00,1,Fog,350
2014-1-13,-14,-30,-45,-20,-27,-31,75,72,59,29.69,29.63,29.49,10,10,5,8,2,,0.00,3,Fog-Snow,337
2014-1-14,-2,-19,-36,-8,-12,-18,87,78,62,29.52,29.32,29.16,10,8,2,7,5,,0.00,7,Snow,349
2014-1-15,-2,-12,-22,-8,-16,-28,87,76,63,29.91,29.82,29.55,10,9,5,8,4,,0.00,6,Snow,357
2014-1-16,-4,-14,-23,-9,-13,-15,83,72,54,29.95,29.81,29.72,10,10,10,9,7,,0.00,8,,331
2014-1-17,12,2,-9,9,-1,-15,92,81,54,29.98,29.57,29.30,10,4,0,10,7,17,0.16,8,Fog-Snow,327
2014-1-18,16,7,-2,2,-1,-4,87,83,70,29.67,29.32,29.19,10,3,0,7,3,,0.12,8,Fog-Snow,332
2014-1-19,10,6,1,7,3,-1,92,84,76,30.02,29.88,29.68,10,7,0,8,2,,0.03,7,Fog-Snow,332
2014-1-20,26,14,7,11,8,7,81,71,51,30.01,29.96,29.86,10,10,10,14,8,20,0.00,6,,5
2014-1-21,33,22,10,19,13,7,92,73,44,29.85,29.60,29.50,10,9,2,10,5,,0.08,7,Snow,344
2014-1-22,27,22,17,25,21,18,96,90,74,29.82,29.70,29.52,10,7,1,13,2,20,0.01,7,Fog-Snow,350
2014-1-23,28,22,15,25,19,13,93,82,61,29.85,29.73,29.62,10,9,2,8,5,,0.08,6,Snow,353
2014-1-24,33,24,14,30,27,22,100,89,66,30.18,29.84,29.64,10,7,0,15,5,,0.28,8,Fog-Rain-Snow,15
2014-1-25,30,27,24,28,23,20,100,88,78,30.24,30.19,30.10,10,10,5,12,6,20,0.00,4,,5
2014-1-26,28,22,17,20,17,14,89,84,73,30.10,30.07,30.02,10,10,10,9,6,,0.00,2,,337
2014-1-27,24,20,15,18,15,12,92,85,73,30.09,30.00,29.93,10,10,10,9,5,,0.00,1,,348
2014-1-28,19,14,10,15,12,7,92,86,77,30.04,29.98,29.95,10,10,10,6,3,,0.00,3,,349
2014-1-29,14,8,1,9,5,-1,92,86,77,30.21,30.14,30.05,10,10,10,8,5,,0.00,0,,341
2014-1-30,5,-4,-12,0,-7,-16,91,82,72,30.33,30.29,30.22,10,10,10,5,2,,0.00,0,,360
2014-1-31,10,-4,-17,8,-7,-21,88,81,67,30.41,30.37,30.31,10,10,10,4,0,,0.00,5,Snow,30